Aviation Digital Data Service (ADDS)

Output produced by METARs form (1334 UTC 26 May 2018)
found at http://www.aviationweather.gov/adds/metars/
 
SPHY 261110Z 2612/2712 00000KT 9999 FEW020 SCT040 TX18/2619Z TNM05/2711Z 
     FM261400 36005KT CAVOK 
     TEMPO 2617/2621 36015KT
       
SPQU 260500Z 2606/2706 03005KT CAVOK TX22/2618Z TN08/2610Z 
     TEMPO 2610/2614 06012KT 
     BECMG 2614/2616 25010KT
       
SPHO 261110Z 2612/2712 VRB03KT CAVOK TX26/2619Z TN05/2711Z 
     TEMPO 2617/2620 24010KT FEW040 SCT080 
     TEMPO 2620/2623 06010KT
       
SPJR 261100Z 2612/2712 VRB02KT 9999 SCT030 TX21/2619Z TN06/2711Z 
     BECMG 2614/2616 13008KT SCT027 BKN043
       
SPHI 261100Z 2612/2712 18010KT 9999 FEW010 SCT015 TX25/2619Z TN17/2711Z 
     TEMPO 2612/2613 8000 BKN008 
     BECMG 2614/2616 9999 SCT015 
     FM261800 19015KT CAVOK 
     BECMG 2620/2622 BKN017 
     FM270600 18010KT 9999 BKN010
       
TAF SPZO 261110Z 2612/2712 VRB03KT 9999 NSC TX21/2619Z TN00/2 6000 -SHRA FEW020TCU SCT100 
     BECMG 2623/2703 00000KT 9999 FEW020
       
SPLO 261115Z 2612/2712 VRB07KT 9999 BKN025 TX22/2619Z TN16/2LVA0567 261148 GG KWBCYMYX MPZZMAMX 261148 SCSCYZYX FTCH11 SCSC 261200 CCA TAF COR SCFA 261145Z 2612/2712 10004KT 9999 OVC014 TX17/2617Z TN13/ 2706Z 
     BECMG 2615/2617 22011KT FEW015 
     BECMG 2621/2623 BKN015 
     BECMG 2700/2702 17004KT 
     BECMG 2708/2710 12004KT
       
TAF SPQT 261100Z 2612/2712 00000KT 9999 SCT010 BKN080 TX32/2620Z TN23/2711Z 
     BECMG 2614/2617 24006KT 9999 BKN020 SCT100 
     PROB40 2619/2623 06008KT FEW030TCU BKN100 
     TEMPO 2623/2703 01012KT 4000 SHRA SCT020TCU BKN070
       
SPJI 261100Z 2612/2712 00000KT 9999 SCT020 BKN100 TX32/2619Z TN21/2711Z 
     BECMG 2614/2617 26006KT 9999 SCT010 
     TEMPO 2619/2623 33010KT 6000 -SHRA FEW020TCU SCT100 
     BECMG 2623/2703 00000KT 9999 FEW020
       
TAF SPJL 261115Z 2612/2712 VRB05KT CAVOK TX17/2619Z TN02/2710Z
       
SPSO 261100Z 2612/2712 30005KT 5000 BR OVC015 TX20/2619Z TN14/2711Z 
     TEMPO 2612/2613 3000 BR OVC005 
     BECMG 2614/2617 27010KT 9999 SCT015 
     BECMG 2620/2622 23014KT 
     FM270000 23010KT 7000 OVC015
       
SPCL 261100Z 2612/2712 00000KT 9999 SCT020 TX33/2620Z TN22/2711Z 
     BECMG 2614/2617 15007KT 9999 FEW010 SCT060 
     TEMPO 2623/2703 33008KT 8000 FEW030 BKN080
       
SPTN 261100Z 2612/2712 VRB03KT 8000 OVC015 TX22/2619Z TN13/2711Z 
     TEMPO 2612/2613 5000 BR OVC010 
     BECMG 2613/2615 9999 SCT017 
     FM261700 23010KT CAVOK 
     FM262300 22007KT 9999 BKN020 
     FM270200 22005KT 7000 OVC012
       
SPYL 261100Z 2612/2712 15018KT CAVOK TX28/2619Z TN18/2711Z 
     TEMPO 2612/2614 SCT050 
     BECMG 2617/2619 17010KT
       
SPST 261100Z 2612/2712 VRB02KT 9999 SCT015 SCT100 TX32/2619Z TN21/2711Z 
     TEMPO 2612/2614 SCT012 BKN080 
     BECMG 2613/2615 SCT030
       
SPGM 261100Z 2612/2712 00000KT 9999 SCT040 SCT120 TX31/2619Z TN20/2711Z 
     TEMPO 2612/2614 7000 SCT030 BKN080 
     BECMG 2620/2622 35005KT
       
SPRU 261100Z 2612/2712 13008KT 8000 OVC012 TX21/2619Z TN16/2710Z 
     TEMPO 2612/2614 5000 BR OVC008 
     BECMG 2614/2616 BKN015 
     FM261900 15012KT 9999 FEW017 
     FM270000 14008KT 7000 BKN012
       
SPMS 261100Z 2612/2712 15005KT 9999 FEW010 TX32/2620Z TN22/2711Z 
     TEMPO 2615/2619 35008KT 6000 -SHRA FEW020TCU BKN080 
     BECMG 2623/2703 00000KT 9999 SCT030